sensor_id;sensor_type;location;lat;lon;timestamp;pressure;altitude;pressure_sealevel;temperature;humidity
77706;BME280;66874;45.274;5.880;2023-02-15T00:00:04;100322.31;;;2.79;55.35
77706;BME280;66874;45.274;5.880;2023-02-15T00:02:30;100315.31;;;2.77;55.54
77706;BME280;66874;45.274;5.880;2023-02-15T00:04:56;100312.81;;;2.78;55.66
77706;BME280;66874;45.274;5.880;2023-02-15T00:07:21;100309.38;;;2.79;55.62
77706;BME280;66874;45.274;5.880;2023-02-15T00:09:47;100304.09;;;2.76;55.76
77706;BME280;66874;45.274;5.880;2023-02-15T00:12:14;100304.94;;;2.75;55.81
77706;BME280;66874;45.274;5.880;2023-02-15T00:14:39;100308.47;;;2.77;55.81
77706;BME280;66874;45.274;5.880;2023-02-15T00:17:05;100312.69;;;2.75;55.77
77706;BME280;66874;45.274;5.880;2023-02-15T00:19:30;100302.31;;;2.74;55.83
77706;BME280;66874;45.274;5.880;2023-02-15T00:21:56;100308.47;;;2.77;55.81
77706;BME280;66874;45.274;5.880;2023-02-15T00:24:21;100299.00;;;2.78;55.89
77706;BME280;66874;45.274;5.880;2023-02-15T00:26:47;100299.75;;;2.74;55.77
77706;BME280;66874;45.274;5.880;2023-02-15T00:29:14;100301.19;;;2.65;55.86
77706;BME280;66874;45.274;5.880;2023-02-15T03:01:39;100310.56;;;0.95;60.08
77706;BME280;66874;45.274;5.880;2023-02-15T03:04:10;100309.69;;;0.95;60.15
77706;BME280;66874;45.274;5.880;2023-02-15T03:09:11;100312.84;;;0.88;60.08
77706;BME280;66874;45.274;5.880;2023-02-15T03:11:47;100309.97;;;0.80;60.50
77706;BME280;66874;45.274;5.880;2023-02-15T03:14:14;100307.22;;;0.76;60.45
77706;BME280;66874;45.274;5.880;2023-02-15T03:16:41;100305.47;;;0.75;60.67
77706;BME280;66874;45.274;5.880;2023-02-15T03:19:11;100302.59;;;0.67;60.76
77706;BME280;66874;45.274;5.880;2023-02-15T03:21:49;100310.94;;;0.61;60.95
77706;BME280;66874;45.274;5.880;2023-02-15T03:24:24;100309.88;;;0.56;60.86
77706;BME280;66874;45.274;5.880;2023-02-15T03:26:51;100318.47;;;0.57;60.97
77706;BME280;66874;45.274;5.880;2023-02-15T03:29:21;100311.63;;;0.57;60.96
77706;BME280;66874;45.274;5.880;2023-02-15T06:32:25;100354.47;;;-0.43;64.28
77706;BME280;66874;45.274;5.880;2023-02-15T06:34:50;100353.06;;;-0.37;64.23
77706;BME280;66874;45.274;5.880;2023-02-15T06:37:16;100350.78;;;-0.31;64.12
77706;BME280;66874;45.274;5.880;2023-02-15T06:39:41;100363.69;;;-0.29;64.16
77706;BME280;66874;45.274;5.880;2023-02-15T06:42:08;100361.16;;;-0.28;64.18
77706;BME280;66874;45.274;5.880;2023-02-15T06:44:33;100368.88;;;-0.28;64.30
77706;BME280;66874;45.274;5.880;2023-02-15T06:46:58;100375.72;;;-0.28;64.15
77706;BME280;66874;45.274;5.880;2023-02-15T06:49:24;100368.97;;;-0.26;64.18
77706;BME280;66874;45.274;5.880;2023-02-15T06:51:49;100370.66;;;-0.27;64.08
77706;BME280;66874;45.274;5.880;2023-02-15T06:54:14;100376.59;;;-0.28;64.29
77706;BME280;66874;45.274;5.880;2023-02-15T06:56:40;100371.41;;;-0.29;64.27
77706;BME280;66874;45.274;5.880;2023-02-15T06:59:05;100371.34;;;-0.31;64.41
77706;BME280;66874;45.274;5.880;2023-02-15T07:01:31;100374.78;;;-0.30;64.45
77706;BME280;66874;45.274;5.880;2023-02-15T07:03:56;100367.00;;;-0.32;64.40
77706;BME280;66874;45.274;5.880;2023-02-15T07:06:21;100370.31;;;-0.34;64.51
77706;BME280;66874;45.274;5.880;2023-02-15T07:08:47;100365.19;;;-0.34;64.54
77706;BME280;66874;45.274;5.880;2023-02-15T07:11:12;100362.66;;;-0.33;64.54
77706;BME280;66874;45.274;5.880;2023-02-15T07:13:56;100365.38;;;-0.30;64.55
77706;BME280;66874;45.274;5.880;2023-02-15T07:16:21;100370.66;;;-0.27;64.43
77706;BME280;66874;45.274;5.880;2023-02-15T07:18:47;100366.44;;;-0.25;64.52
77706;BME280;66874;45.274;5.880;2023-02-15T07:21:12;100371.53;;;-0.26;64.40
77706;BME280;66874;45.274;5.880;2023-02-15T07:23:39;100368.00;;;-0.28;64.56
77706;BME280;66874;45.274;5.880;2023-02-15T07:26:05;100372.22;;;-0.30;64.63
77706;BME280;66874;45.274;5.880;2023-02-15T07:28:32;100371.41;;;-0.29;64.60
77706;BME280;66874;45.274;5.880;2023-02-15T07:30:58;100372.22;;;-0.30;64.76
77706;BME280;66874;45.274;5.880;2023-02-15T07:33:23;100377.34;;;-0.30;64.78
77706;BME280;66874;45.274;5.880;2023-02-15T07:35:53;100372.13;;;-0.32;64.84
77706;BME280;66874;45.274;5.880;2023-02-15T07:38:19;100369.75;;;-0.27;64.86
77706;BME280;66874;45.274;5.880;2023-02-15T07:40:45;100370.03;;;-0.21;64.99
77706;BME280;66874;45.274;5.880;2023-02-15T07:43:11;100371.22;;;-0.14;65.03
77706;BME280;66874;45.274;5.880;2023-02-15T07:45:37;100369.91;;;-0.05;65.00
77706;BME280;66874;45.274;5.880;2023-02-15T07:48:04;100369.38;;;0.03;64.83
77706;BME280;66874;45.274;5.880;2023-02-15T07:50:30;100363.72;;;0.11;64.89
77706;BME280;66874;45.274;5.880;2023-02-15T07:52:56;100357.31;;;0.21;64.89
77706;BME280;66874;45.274;5.880;2023-02-15T07:55:21;100354.44;;;0.34;64.82
77706;BME280;66874;45.274;5.880;2023-02-15T07:57:48;100355.72;;;0.44;64.91
77706;BME280;66874;45.274;5.880;2023-02-15T08:00:15;100351.06;;;0.56;64.72
77706;BME280;66874;45.274;5.880;2023-02-15T08:02:42;100344.66;;;0.67;64.68
77706;BME280;66874;45.274;5.880;2023-02-15T08:05:07;100344.28;;;0.79;64.62
77706;BME280;66874;45.274;5.880;2023-02-15T08:07:33;100346.47;;;0.91;64.55
77706;BME280;66874;45.274;5.880;2023-02-15T08:09:58;100343.31;;;0.98;64.88
77706;BME280;66874;45.274;5.880;2023-02-15T08:12:27;100342.00;;;1.08;64.66
77706;BME280;66874;45.274;5.880;2023-02-15T08:14:53;100333.66;;;1.15;64.54
77706;BME280;66874;45.274;5.880;2023-02-15T08:17:18;100332.22;;;1.21;64.70
77706;BME280;66874;45.274;5.880;2023-02-15T08:19:43;100338.50;;;1.28;64.59
77706;BME280;66874;45.274;5.880;2023-02-15T08:22:12;100327.44;;;1.31;64.79
77706;BME280;66874;45.274;5.880;2023-02-15T08:24:37;100335.25;;;1.34;64.60
77706;BME280;66874;45.274;5.880;2023-02-15T08:27:04;100333.66;;;1.37;64.68
77706;BME280;66874;45.274;5.880;2023-02-15T08:29:31;100326.19;;;1.43;64.78
77706;BME280;66874;45.274;5.880;2023-02-15T08:32:05;100328.88;;;1.46;64.72
77706;BME280;66874;45.274;5.880;2023-02-15T08:34:41;100337.69;;;1.53;64.74
77706;BME280;66874;45.274;5.880;2023-02-15T08:37:07;100328.50;;;1.60;64.89
77706;BME280;66874;45.274;5.880;2023-02-15T08:39:33;100320.16;;;1.67;64.78
77706;BME280;66874;45.274;5.880;2023-02-15T08:41:58;100326.53;;;1.77;64.70
77706;BME280;66874;45.274;5.880;2023-02-15T08:44:24;100317.38;;;1.85;64.52
77706;BME280;66874;45.274;5.880;2023-02-15T08:46:49;100313.41;;;1.94;64.79
77706;BME280;66874;45.274;5.880;2023-02-15T08:49:18;100308.56;;;2.04;64.79
77706;BME280;66874;45.274;5.880;2023-02-15T08:51:44;100304.66;;;2.15;64.78
77706;BME280;66874;45.274;5.880;2023-02-15T08:54:12;100312.88;;;2.29;64.80
77706;BME280;66874;45.274;5.880;2023-02-15T08:56:40;100306.38;;;2.40;64.70
77706;BME280;66874;45.274;5.880;2023-02-15T08:59:12;100303.44;;;2.55;64.72
77706;BME280;66874;45.274;5.880;2023-02-15T09:01:38;100306.44;;;2.68;64.66
77706;BME280;66874;45.274;5.880;2023-02-15T09:04:05;100308.72;;;2.85;64.41
77706;BME280;66874;45.274;5.880;2023-02-15T09:06:34;100298.88;;;3.02;64.33
77706;BME280;66874;45.274;5.880;2023-02-15T09:08:59;100301.25;;;3.23;64.14
77706;BME280;66874;45.274;5.880;2023-02-15T09:11:27;100297.50;;;3.41;63.97
77706;BME280;66874;45.274;5.880;2023-02-15T09:13:58;100286.03;;;3.62;63.64
77706;BME280;66874;45.274;5.880;2023-02-15T09:16:26;100290.91;;;3.83;63.55
77706;BME280;66874;45.274;5.880;2023-02-15T09:18:52;100280.34;;;4.07;63.36
77706;BME280;66874;45.274;5.880;2023-02-15T09:21:20;100281.84;;;4.32;63.07
77706;BME280;66874;45.274;5.880;2023-02-15T09:23:48;100266.13;;;4.59;62.87
77706;BME280;66874;45.274;5.880;2023-02-15T09:26:22;100271.94;;;4.86;62.64
77706;BME280;66874;45.274;5.880;2023-02-15T09:28:52;100271.69;;;5.13;62.21
77706;BME280;66874;45.274;5.880;2023-02-15T09:31:19;100270.56;;;5.42;61.88
77706;BME280;66874;45.274;5.880;2023-02-15T09:33:45;100264.19;;;5.68;61.89
77706;BME280;66874;45.274;5.880;2023-02-15T09:36:22;100264.72;;;5.96;61.08
77706;BME280;66874;45.274;5.880;2023-02-15T09:38:54;100262.63;;;6.22;60.92
77706;BME280;66874;45.274;5.880;2023-02-15T09:55:01;100243.06;;;7.68;58.82
77706;BME280;66874;45.274;5.880;2023-02-15T10:15:17;100218.41;;;9.53;55.95
77706;BME280;66874;45.274;5.880;2023-02-15T10:23:23;100217.72;;;10.36;54.16
77706;BME280;66874;45.274;5.880;2023-02-15T10:28:42;100215.94;;;10.73;53.09
77706;BME280;66874;45.274;5.880;2023-02-15T10:31:27;100207.13;;;11.06;52.63
77706;BME280;66874;45.274;5.880;2023-02-15T10:34:02;100203.53;;;11.39;52.12
77706;BME280;66874;45.274;5.880;2023-02-15T10:42:15;100193.47;;;12.18;50.71
77706;BME280;66874;45.274;5.880;2023-02-15T10:53:10;100170.38;;;13.41;48.48
77706;BME280;66874;45.274;5.880;2023-02-15T11:03:36;100154.81;;;13.86;46.63
77706;BME280;66874;45.274;5.880;2023-02-15T11:06:11;100149.00;;;14.22;46.23
77706;BME280;66874;45.274;5.880;2023-02-15T11:08:48;100143.03;;;14.64;45.59
77706;BME280;66874;45.274;5.880;2023-02-15T11:11:29;100123.97;;;14.97;44.95
77706;BME280;66874;45.274;5.880;2023-02-15T11:16:45;100126.38;;;15.49;43.94
77706;BME280;66874;45.274;5.880;2023-02-15T11:19:17;100112.03;;;15.61;43.25
77706;BME280;66874;45.274;5.880;2023-02-15T11:21:48;100108.78;;;15.89;42.92
77706;BME280;66874;45.274;5.880;2023-02-15T11:24:17;100106.56;;;16.06;42.18
77706;BME280;66874;45.274;5.880;2023-02-15T11:31:49;100090.41;;;16.85;41.13
77706;BME280;66874;45.274;5.880;2023-02-15T11:34:29;100082.63;;;17.10;40.82
77706;BME280;66874;45.274;5.880;2023-02-15T11:37:00;100081.22;;;17.28;40.57
77706;BME280;66874;45.274;5.880;2023-02-15T11:39:28;100070.44;;;17.62;40.06
77706;BME280;66874;45.274;5.880;2023-02-15T11:42:00;100065.72;;;18.00;39.67
77706;BME280;66874;45.274;5.880;2023-02-15T11:44:31;100060.66;;;18.19;38.98
77706;BME280;66874;45.274;5.880;2023-02-15T11:46:58;100056.56;;;18.35;38.13
77706;BME280;66874;45.274;5.880;2023-02-15T11:49:34;100054.72;;;18.12;37.46
77706;BME280;66874;45.274;5.880;2023-02-15T11:52:06;100052.13;;;18.11;37.73
77706;BME280;66874;45.274;5.880;2023-02-15T11:54:36;100044.44;;;18.28;37.86
77706;BME280;66874;45.274;5.880;2023-02-15T11:57:14;100035.88;;;18.45;37.29
77706;BME280;66874;45.274;5.880;2023-02-15T11:59:46;100033.84;;;18.53;36.84
77706;BME280;66874;45.274;5.880;2023-02-15T12:02:17;100029.44;;;19.00;36.36
77706;BME280;66874;45.274;5.880;2023-02-15T12:04:47;100034.31;;;19.35;35.96
77706;BME280;66874;45.274;5.880;2023-02-15T12:07:24;100031.34;;;19.42;35.60
77706;BME280;66874;45.274;5.880;2023-02-15T12:10:04;100024.06;;;19.91;35.63
77706;BME280;66874;45.274;5.880;2023-02-15T12:12:34;100021.88;;;20.62;34.08
77706;BME280;66874;45.274;5.880;2023-02-15T12:15:02;100014.50;;;21.26;33.32
77706;BME280;66874;45.274;5.880;2023-02-15T12:17:40;99998.16;;;22.39;32.55
77706;BME280;66874;45.274;5.880;2023-02-15T12:20:22;99990.56;;;23.45;31.25
77706;BME280;66874;45.274;5.880;2023-02-15T12:22:59;99989.47;;;24.24;29.61
77706;BME280;66874;45.274;5.880;2023-02-15T12:25:37;99989.38;;;24.25;28.89
77706;BME280;66874;45.274;5.880;2023-02-15T12:28:21;99995.81;;;24.37;28.56
77706;BME280;66874;45.274;5.880;2023-02-15T12:30:48;99988.66;;;24.95;28.70
77706;BME280;66874;45.274;5.880;2023-02-15T12:33:34;99978.06;;;25.35;27.72
77706;BME280;66874;45.274;5.880;2023-02-15T12:36:08;99998.00;;;25.16;27.12
77706;BME280;66874;45.274;5.880;2023-02-15T12:38:35;99981.56;;;25.62;27.06
77706;BME280;66874;45.274;5.880;2023-02-15T12:41:03;99986.06;;;25.89;26.36
77706;BME280;66874;45.274;5.880;2023-02-15T12:43:35;99981.59;;;26.40;25.94
77706;BME280;66874;45.274;5.880;2023-02-15T12:46:19;99977.66;;;26.59;25.71
77706;BME280;66874;45.274;5.880;2023-02-15T12:48:45;99980.75;;;26.40;25.13
77706;BME280;66874;45.274;5.880;2023-02-15T12:51:14;99973.13;;;25.95;25.47
77706;BME280;66874;45.274;5.880;2023-02-15T12:53:40;99983.06;;;25.26;26.07
77706;BME280;66874;45.274;5.880;2023-02-15T12:56:07;99980.69;;;25.07;26.00
77706;BME280;66874;45.274;5.880;2023-02-15T12:58:35;99975.66;;;24.89;26.72
77706;BME280;66874;45.274;5.880;2023-02-15T13:01:16;99967.69;;;25.01;26.36
77706;BME280;66874;45.274;5.880;2023-02-15T13:03:59;99959.13;;;25.38;26.51
77706;BME280;66874;45.274;5.880;2023-02-15T13:06:27;99953.66;;;25.79;25.83
77706;BME280;66874;45.274;5.880;2023-02-15T13:08:59;99949.75;;;26.36;25.14
77706;BME280;66874;45.274;5.880;2023-02-15T13:11:30;99948.69;;;26.51;25.98
77706;BME280;66874;45.274;5.880;2023-02-15T13:14:16;99942.84;;;26.44;25.40
77706;BME280;66874;45.274;5.880;2023-02-15T13:16:44;99940.13;;;25.68;25.56
77706;BME280;66874;45.274;5.880;2023-02-15T13:21:40;99946.06;;;25.04;25.41
77706;BME280;66874;45.274;5.880;2023-02-15T13:24:32;99934.50;;;25.18;25.53
77706;BME280;66874;45.274;5.880;2023-02-15T13:26:59;99933.53;;;25.46;25.38
77706;BME280;66874;45.274;5.880;2023-02-15T13:29:30;99932.41;;;25.76;25.27
77706;BME280;66874;45.274;5.880;2023-02-15T13:31:58;99933.22;;;26.16;24.59
77706;BME280;66874;45.274;5.880;2023-02-15T13:34:31;99932.25;;;26.68;24.28
77706;BME280;66874;45.274;5.880;2023-02-15T13:42:19;99923.50;;;26.77;23.89
77706;BME280;66874;45.274;5.880;2023-02-15T13:48:03;99919.09;;;25.74;24.17
77706;BME280;66874;45.274;5.880;2023-02-15T13:56:20;99922.59;;;24.09;26.01
77706;BME280;66874;45.274;5.880;2023-02-15T13:59:12;99930.84;;;23.46;26.29
77706;BME280;66874;45.274;5.880;2023-02-15T14:01:56;99928.91;;;23.02;26.55
77706;BME280;66874;45.274;5.880;2023-02-15T14:04:25;99930.63;;;22.72;26.65
77706;BME280;66874;45.274;5.880;2023-02-15T14:07:16;99930.81;;;22.35;26.94
77706;BME280;66874;45.274;5.880;2023-02-15T14:10:14;99944.88;;;22.04;27.27
77706;BME280;66874;45.274;5.880;2023-02-15T14:18:28;99933.75;;;21.44;27.67
77706;BME280;66874;45.274;5.880;2023-02-15T14:21:08;99931.75;;;21.30;27.72
77706;BME280;66874;45.274;5.880;2023-02-15T14:31:57;99934.66;;;20.31;28.90
77706;BME280;66874;45.274;5.880;2023-02-15T14:37:03;99936.88;;;20.01;29.14
77706;BME280;66874;45.274;5.880;2023-02-15T14:42:54;99940.50;;;19.36;29.34
77706;BME280;66874;45.274;5.880;2023-02-15T14:45:29;99940.78;;;19.08;30.07
77706;BME280;66874;45.274;5.880;2023-02-15T14:48:09;99950.13;;;18.94;29.79
77706;BME280;66874;45.274;5.880;2023-02-15T14:50:39;99952.53;;;18.78;29.99
77706;BME280;66874;45.274;5.880;2023-02-15T14:55:41;99952.88;;;18.68;30.25
77706;BME280;66874;45.274;5.880;2023-02-15T14:58:15;99948.59;;;18.65;30.47
77706;BME280;66874;45.274;5.880;2023-02-15T15:00:41;99951.47;;;18.59;30.64
77706;BME280;66874;45.274;5.880;2023-02-15T15:03:16;99955.97;;;18.57;30.71
77706;BME280;66874;45.274;5.880;2023-02-15T15:05:51;99947.66;;;18.66;30.77
77706;BME280;66874;45.274;5.880;2023-02-15T15:08:41;99957.47;;;18.88;30.86
77706;BME280;66874;45.274;5.880;2023-02-15T15:13:57;99959.47;;;19.05;30.70
77706;BME280;66874;45.274;5.880;2023-02-15T15:19:02;99962.66;;;19.13;30.49
77706;BME280;66874;45.274;5.880;2023-02-15T15:41:18;99951.88;;;20.02;29.68
77706;BME280;66874;45.274;5.880;2023-02-15T15:46:59;99954.00;;;20.14;29.50
77706;BME280;66874;45.274;5.880;2023-02-15T15:49:30;99951.44;;;20.32;29.08
77706;BME280;66874;45.274;5.880;2023-02-15T15:52:00;99956.41;;;20.60;28.95
77706;BME280;66874;45.274;5.880;2023-02-15T15:54:27;99953.91;;;20.76;28.52
77706;BME280;66874;45.274;5.880;2023-02-15T15:56:57;99954.09;;;20.90;28.63
77706;BME280;66874;45.274;5.880;2023-02-15T15:59:29;99948.34;;;21.18;28.13
77706;BME280;66874;45.274;5.880;2023-02-15T16:01:56;99946.72;;;21.33;27.61
77706;BME280;66874;45.274;5.880;2023-02-15T16:04:31;99956.59;;;21.12;27.69
77706;BME280;66874;45.274;5.880;2023-02-15T16:07:05;99956.13;;;21.04;27.80
77706;BME280;66874;45.274;5.880;2023-02-15T16:09:38;99965.19;;;21.00;27.79
77706;BME280;66874;45.274;5.880;2023-02-15T16:12:10;99959.41;;;21.09;27.46
77706;BME280;66874;45.274;5.880;2023-02-15T16:14:40;99961.84;;;20.94;27.43
77706;BME280;66874;45.274;5.880;2023-02-15T16:17:12;99966.19;;;20.78;27.49
77706;BME280;66874;45.274;5.880;2023-02-15T16:19:41;99969.56;;;20.63;27.71
77706;BME280;66874;45.274;5.880;2023-02-15T16:22:16;99972.09;;;20.25;27.51
77706;BME280;66874;45.274;5.880;2023-02-15T16:25:20;99984.88;;;19.76;27.84
77706;BME280;66874;45.274;5.880;2023-02-15T16:27:49;99987.59;;;19.31;28.35
77706;BME280;66874;45.274;5.880;2023-02-15T16:30:35;99996.25;;;18.90;28.74
77706;BME280;66874;45.274;5.880;2023-02-15T16:35:54;99999.50;;;18.26;29.74
77706;BME280;66874;45.274;5.880;2023-02-15T16:41:29;100002.78;;;17.55;30.54
77706;BME280;66874;45.274;5.880;2023-02-15T16:43:59;100017.03;;;17.23;30.72
77706;BME280;66874;45.274;5.880;2023-02-15T16:46:27;100020.84;;;16.84;31.12
77706;BME280;66874;45.274;5.880;2023-02-15T16:48:55;100019.13;;;16.51;31.95
77706;BME280;66874;45.274;5.880;2023-02-15T16:51:27;100019.78;;;16.28;32.68
77706;BME280;66874;45.274;5.880;2023-02-15T16:53:55;100030.31;;;15.95;33.48
77706;BME280;66874;45.274;5.880;2023-02-15T16:56:27;100023.09;;;15.68;34.00
77706;BME280;66874;45.274;5.880;2023-02-15T16:58:56;100032.59;;;15.37;34.54
77706;BME280;66874;45.274;5.880;2023-02-15T17:01:23;100024.41;;;15.11;34.80
77706;BME280;66874;45.274;5.880;2023-02-15T17:03:50;100020.41;;;14.93;34.90
77706;BME280;66874;45.274;5.880;2023-02-15T17:06:25;100027.81;;;14.74;35.35
77706;BME280;66874;45.274;5.880;2023-02-15T17:08:51;100034.41;;;14.53;35.58
77706;BME280;66874;45.274;5.880;2023-02-15T17:11:21;100042.66;;;14.32;36.30
77706;BME280;66874;45.274;5.880;2023-02-15T17:16:54;100032.00;;;13.91;36.90
77706;BME280;66874;45.274;5.880;2023-02-15T17:19:26;100049.03;;;13.69;37.25
77706;BME280;66874;45.274;5.880;2023-02-15T17:22:03;100062.63;;;13.40;37.59
77706;BME280;66874;45.274;5.880;2023-02-15T17:24:40;100060.34;;;13.12;38.06
77706;BME280;66874;45.274;5.880;2023-02-15T17:27:16;100063.22;;;12.94;38.32
77706;BME280;66874;45.274;5.880;2023-02-15T17:29:49;100064.59;;;12.53;38.67
77706;BME280;66874;45.274;5.880;2023-02-15T17:32:27;100064.75;;;12.38;38.93
77706;BME280;66874;45.274;5.880;2023-02-15T17:37:44;100073.72;;;12.14;39.54
77706;BME280;66874;45.274;5.880;2023-02-15T17:40:24;100076.53;;;11.91;39.67
77706;BME280;66874;45.274;5.880;2023-02-15T17:42:50;100086.28;;;11.72;39.81
77706;BME280;66874;45.274;5.880;2023-02-15T17:45:16;100084.63;;;11.60;40.00
77706;BME280;66874;45.274;5.880;2023-02-15T17:47:42;100092.59;;;11.46;40.27
77706;BME280;66874;45.274;5.880;2023-02-15T17:50:18;100088.31;;;11.25;40.71
77706;BME280;66874;45.274;5.880;2023-02-15T17:52:45;100097.13;;;11.14;40.82
77706;BME280;66874;45.274;5.880;2023-02-15T17:55:16;100088.47;;;10.98;41.03
77706;BME280;66874;45.274;5.880;2023-02-15T17:58:08;100098.97;;;10.90;41.14
77706;BME280;66874;45.274;5.880;2023-02-15T18:00:37;100099.88;;;10.82;41.45
77706;BME280;66874;45.274;5.880;2023-02-15T18:03:23;100101.66;;;10.75;41.31
77706;BME280;66874;45.274;5.880;2023-02-15T18:06:08;100099.91;;;10.71;41.47
77706;BME280;66874;45.274;5.880;2023-02-15T18:08:52;100109.53;;;10.57;41.67
77706;BME280;66874;45.274;5.880;2023-02-15T18:11:36;100113.06;;;10.45;41.77
77706;BME280;66874;45.274;5.880;2023-02-15T18:14:06;100112.22;;;10.40;42.13
77706;BME280;66874;45.274;5.880;2023-02-15T18:16:33;100124.41;;;10.39;41.84
77706;BME280;66874;45.274;5.880;2023-02-15T18:18:59;100117.44;;;10.32;42.06
77706;BME280;66874;45.274;5.880;2023-02-15T18:21:25;100126.19;;;10.26;42.12
77706;BME280;66874;45.274;5.880;2023-02-15T18:23:51;100122.66;;;10.09;42.31
77706;BME280;66874;45.274;5.880;2023-02-15T18:26:20;100123.53;;;9.93;42.78
77706;BME280;66874;45.274;5.880;2023-02-15T18:28:46;100134.84;;;9.81;42.91
77706;BME280;66874;45.274;5.880;2023-02-15T18:31:13;100140.94;;;9.71;43.14
77706;BME280;66874;45.274;5.880;2023-02-15T18:33:49;100144.41;;;9.62;43.22
77706;BME280;66874;45.274;5.880;2023-02-15T18:36:21;100139.16;;;9.54;43.51
77706;BME280;66874;45.274;5.880;2023-02-15T18:38:48;100137.41;;;9.43;43.49
77706;BME280;66874;45.274;5.880;2023-02-15T18:41:18;100140.84;;;9.36;44.00
77706;BME280;66874;45.274;5.880;2023-02-15T18:43:45;100136.47;;;9.28;43.92
77706;BME280;66874;45.274;5.880;2023-02-15T18:46:11;100139.91;;;9.18;44.18
77706;BME280;66874;45.274;5.880;2023-02-15T18:48:37;100144.25;;;9.09;44.30
77706;BME280;66874;45.274;5.880;2023-02-15T18:51:03;100143.31;;;8.97;44.50
77706;BME280;66874;45.274;5.880;2023-02-15T18:53:28;100150.19;;;8.78;44.89
77706;BME280;66874;45.274;5.880;2023-02-15T18:55:54;100151.84;;;8.67;45.00
77706;BME280;66874;45.274;5.880;2023-02-15T18:58:21;100150.13;;;8.66;45.18
77706;BME280;66874;45.274;5.880;2023-02-15T19:00:48;100151.84;;;8.61;45.13
77706;BME280;66874;45.274;5.880;2023-02-15T19:03:15;100158.75;;;8.56;45.50
77706;BME280;66874;45.274;5.880;2023-02-15T19:05:43;100149.13;;;8.49;45.55
77706;BME280;66874;45.274;5.880;2023-02-15T19:08:21;100149.97;;;8.45;45.99
77706;BME280;66874;45.274;5.880;2023-02-15T19:10:50;100157.72;;;8.34;45.90
77706;BME280;66874;45.274;5.880;2023-02-15T19:13:15;100159.41;;;8.30;46.02
77706;BME280;66874;45.274;5.880;2023-02-15T19:15:42;100158.50;;;8.25;45.88
77706;BME280;66874;45.274;5.880;2023-02-15T19:18:08;100157.59;;;8.20;46.16
77706;BME280;66874;45.274;5.880;2023-02-15T19:20:43;100157.56;;;8.17;46.50
77706;BME280;66874;45.274;5.880;2023-02-15T19:23:20;100160.97;;;8.10;46.59
77706;BME280;66874;45.274;5.880;2023-02-15T19:25:47;100160.94;;;8.05;46.62
77706;BME280;66874;45.274;5.880;2023-02-15T19:28:33;100155.66;;;7.96;46.81
77706;BME280;66874;45.274;5.880;2023-02-15T19:30:58;100158.19;;;7.89;47.09
77706;BME280;66874;45.274;5.880;2023-02-15T19:33:24;100161.63;;;7.86;47.03
77706;BME280;66874;45.274;5.880;2023-02-15T19:52:44;100154.50;;;7.65;47.42
77706;BME280;66874;45.274;5.880;2023-02-15T19:55:31;100161.38;;;7.60;47.60
77706;BME280;66874;45.274;5.880;2023-02-15T19:57:58;100159.59;;;7.54;47.71
77706;BME280;66874;45.274;5.880;2023-02-15T20:00:53;100154.31;;;7.48;47.84
77706;BME280;66874;45.274;5.880;2023-02-15T20:03:18;100162.00;;;7.38;47.84
77706;BME280;66874;45.274;5.880;2023-02-15T20:05:45;100154.09;;;7.27;48.10
77706;BME280;66874;45.274;5.880;2023-02-15T20:08:18;100146.25;;;7.25;48.23
77706;BME280;66874;45.274;5.880;2023-02-15T20:10:53;100142.75;;;7.23;48.68
77706;BME280;66874;45.274;5.880;2023-02-15T20:13:19;100147.06;;;7.20;48.65
77706;BME280;66874;45.274;5.880;2023-02-15T20:15:48;100154.78;;;7.14;48.73
77706;BME280;66874;45.274;5.880;2023-02-15T20:18:14;100152.13;;;7.07;48.94
77706;BME280;66874;45.274;5.880;2023-02-15T20:20:46;100149.47;;;7.06;49.06
77706;BME280;66874;45.274;5.880;2023-02-15T20:23:47;100152.94;;;7.05;49.22
77706;BME280;66874;45.274;5.880;2023-02-15T20:26:16;100153.75;;;7.02;49.30
77706;BME280;66874;45.274;5.880;2023-02-15T20:28:44;100160.66;;;6.97;49.35
77706;BME280;66874;45.274;5.880;2023-02-15T20:34:29;100166.66;;;6.93;49.61
77706;BME280;66874;45.274;5.880;2023-02-15T20:37:00;100173.56;;;6.91;49.64
77706;BME280;66874;45.274;5.880;2023-02-15T20:39:26;100178.75;;;6.90;49.94
77706;BME280;66874;45.274;5.880;2023-02-15T20:41:52;100178.75;;;6.88;49.73
77706;BME280;66874;45.274;5.880;2023-02-15T20:46:50;100185.69;;;6.89;49.98
77706;BME280;66874;45.274;5.880;2023-02-15T20:52:32;100189.75;;;6.72;50.33
77706;BME280;66874;45.274;5.880;2023-02-15T20:54:57;100194.91;;;6.66;50.42
77706;BME280;66874;45.274;5.880;2023-02-15T20:57:23;100197.41;;;6.61;50.55
77706;BME280;66874;45.274;5.880;2023-02-15T20:59:51;100198.19;;;6.55;50.71
77706;BME280;66874;45.274;5.880;2023-02-15T21:02:18;100197.19;;;6.46;50.99
77706;BME280;66874;45.274;5.880;2023-02-15T21:04:45;100193.69;;;6.42;51.08
77706;BME280;66874;45.274;5.880;2023-02-15T21:07:15;100195.38;;;6.40;51.04
77706;BME280;66874;45.274;5.880;2023-02-15T21:09:41;100201.38;;;6.38;51.29
77706;BME280;66874;45.274;5.880;2023-02-15T21:12:18;100196.16;;;6.36;51.37
77706;BME280;66874;45.274;5.880;2023-02-15T21:14:44;100208.25;;;6.32;51.58
77706;BME280;66874;45.274;5.880;2023-02-15T21:17:14;100202.09;;;6.27;51.65
77706;BME280;66874;45.274;5.880;2023-02-15T21:19:42;100202.09;;;6.27;51.87
77706;BME280;66874;45.274;5.880;2023-02-15T21:22:11;100200.31;;;6.23;52.02
77706;BME280;66874;45.274;5.880;2023-02-15T21:24:37;100196.72;;;6.15;52.05
77706;BME280;66874;45.274;5.880;2023-02-15T21:27:05;100200.84;;;6.05;52.37
77706;BME280;66874;45.274;5.880;2023-02-15T21:29:30;100199.06;;;6.03;52.52
77706;BME280;66874;45.274;5.880;2023-02-15T21:31:56;100201.59;;;5.98;52.22
77706;BME280;66874;45.274;5.880;2023-02-15T21:34:25;100198.06;;;5.95;52.35
77706;BME280;66874;45.274;5.880;2023-02-15T21:36:50;100198.06;;;5.93;52.42
77706;BME280;66874;45.274;5.880;2023-02-15T21:41:46;100197.06;;;5.88;52.72
77706;BME280;66874;45.274;5.880;2023-02-15T21:44:30;100199.56;;;5.83;52.80